Time;durP1;ratioP1;P1;durP2;ratioP2;P2;SDS_P1;SDS_P2;PMS_P1;PMS_P2;Temp;Humidity;BMP_temperature;BMP_pressure;BME280_temperature;BME280_humidity;BME280_pressure;Samples;Min_cycle;Max_cycle;Signal;HPM_P1;HPM_P2
2022/08/13 00:01:03;;;;;;;1.35;1.23;;;18.90;47.00;;;14.80;62.47;95396.03;4971762;28;20037;-46
2022/08/13 00:03:30;;;;;;;3.70;1.65;;;18.80;46.90;;;14.72;62.75;95404.75;4972285;28;20037;-44
2022/08/13 00:05:56;;;;;;;3.92;1.30;;;18.70;47.20;;;14.56;63.79;95393.50;4973048;28;20389;-45
2022/08/13 00:08:25;;;;;;;1.48;1.30;;;18.60;47.40;;;14.45;64.50;95398.22;4973138;28;20501;-46
2022/08/13 00:10:52;;;;;;;2.90;1.23;;;18.50;47.60;;;14.38;65.31;95387.03;4956045;28;20382;-46
2022/08/13 00:13:24;;;;;;;2.70;1.50;;;18.40;47.90;;;14.34;64.77;95383.38;4972736;28;20427;-46
2022/08/13 00:15:50;;;;;;;1.73;1.30;;;18.30;48.10;;;14.33;65.25;95389.81;4972979;28;20022;-44
2022/08/13 00:18:22;;;;;;;1.90;1.52;;;18.30;48.10;;;14.28;65.61;95390.69;4972901;28;20061;-44
2022/08/13 00:20:57;;;;;;;2.38;1.60;;;18.20;48.50;;;14.22;65.69;95389.19;4971583;28;20030;-47
2022/08/13 00:23:29;;;;;;;2.92;1.52;;;18.10;48.70;;;14.12;65.85;95389.34;4972341;28;20053;-44
2022/08/13 00:25:58;;;;;;;3.50;1.27;;;18.10;49.00;;;14.03;66.18;95385.72;4975325;28;20129;-47
2022/08/13 00:28:37;;;;;;;4.35;1.33;;;18.00;49.00;;;13.94;66.61;95385.59;4992509;28;20040;-43
2022/08/13 00:31:08;;;;;;;7.10;1.77;;;17.90;49.30;;;13.81;66.90;95381.75;4991899;28;20121;-44
2022/08/13 00:33:36;;;;;;;4.25;1.40;;;17.80;49.40;;;13.72;67.77;95390.72;4990551;28;20028;-45
2022/08/13 00:36:03;;;;;;;4.13;1.58;;;17.80;49.50;;;13.65;67.58;95386.53;4991149;28;20029;-43
2022/08/13 00:38:38;;;;;;;7.43;1.50;;;17.70;49.70;;;13.55;68.28;95385.88;4991143;28;20531;-44
2022/08/13 00:41:08;;;;;;;1.67;1.25;;;17.60;50.10;;;13.47;68.71;95392.63;4992343;28;20031;-43
2022/08/13 00:43:34;;;;;;;1.48;1.30;;;17.50;50.10;;;13.37;69.50;95390.91;4990396;28;20116;-43
2022/08/13 00:46:03;;;;;;;2.58;1.50;;;17.40;50.20;;;13.28;69.92;95389.13;4990261;28;20044;-43
2022/08/13 00:48:42;;;;;;;2.42;1.70;;;17.40;50.50;;;13.20;70.24;95383.31;4991999;28;20034;-43
2022/08/13 00:51:10;;;;;;;1.65;1.50;;;17.30;50.90;;;13.11;70.58;95381.56;5006900;28;20570;-48
2022/08/13 00:53:43;;;;;;;2.33;1.60;;;17.20;50.80;;;13.02;71.41;95385.94;5006097;28;20034;-46
2022/08/13 00:56:12;;;;;;;1.95;1.35;;;17.10;51.00;;;12.92;71.63;95386.84;4990682;28;20499;-43
2022/08/13 00:58:41;;;;;;;2.17;1.40;;;17.10;51.10;;;12.81;72.39;95388.03;4990353;28;20026;-46
2022/08/13 01:01:15;;;;;;;1.85;1.70;;;16.90;51.30;;;12.71;72.97;95392.38;4974607;28;20038;-44
2022/08/13 01:03:43;;;;;;;3.28;1.52;;;16.90;51.70;;;12.64;73.12;95386.59;4990146;28;20026;-43
2022/08/13 01:06:10;;;;;;;3.85;1.48;;;16.80;51.70;;;12.64;73.35;95386.59;4990306;28;20104;-44
2022/08/13 01:08:40;;;;;;;2.67;1.20;;;16.80;52.00;;;12.67;72.88;95383.34;4991336;28;20464;-43
2022/08/13 01:11:14;;;;;;;3.00;1.80;;;16.70;52.20;;;12.71;72.71;95384.38;4990343;28;20053;-43
2022/08/13 01:13:51;;;;;;;2.30;1.30;;;16.60;52.40;;;12.78;72.19;95391.25;4989233;28;20060;-45
2022/08/13 01:16:30;;;;;;;2.05;1.50;;;16.70;52.60;;;12.79;71.95;95390.19;4990411;28;20425;-45
2022/08/13 01:19:09;;;;;;;2.42;1.60;;;16.70;52.70;;;12.82;71.36;95381.63;4978493;28;20354;-45
2022/08/13 01:21:44;;;;;;;1.63;1.40;;;16.70;52.70;;;12.79;71.64;95390.19;4967304;28;20374;-46
2022/08/13 01:24:12;;;;;;;1.58;1.40;;;16.70;52.70;;;12.82;71.60;95386.97;4989838;28;20018;-46
2022/08/13 01:26:40;;;;;;;2.78;1.48;;;16.70;52.70;;;12.87;71.54;95389.56;4971269;28;20044;-44
2022/08/13 01:29:09;;;;;;;5.72;1.50;;;16.70;52.80;;;12.83;71.51;95392.00;4986656;28;20050;-43
2022/08/13 01:31:42;;;;;;;3.47;1.45;;;16.70;52.90;;;12.82;71.18;95378.94;4986509;28;20030;-45
2022/08/13 01:34:09;;;;;;;1.83;1.63;;;16.70;52.90;;;12.78;71.54;95380.56;4970531;28;20022;-47
2022/08/13 01:36:40;;;;;;;3.00;1.80;;;16.70;52.70;;;12.79;71.33;95382.97;4971881;28;20028;-44
2022/08/13 01:39:10;;;;;;;2.17;1.80;;;16.70;52.90;;;12.78;71.45;95380.56;4970717;28;20026;-43
2022/08/13 01:41:38;;;;;;;3.92;1.52;;;16.70;52.90;;;12.76;71.51;95383.53;4970522;28;20018;-42
2022/08/13 01:44:06;;;;;;;4.43;2.05;;;16.60;52.90;;;12.77;71.75;95379.78;4970962;28;20033;-42
2022/08/13 01:52:11;;;;;;;1.48;1.30;;;16.70;53.20;;;12.79;71.19;95376.84;4983629;28;20077;-49
2022/08/13 01:54:40;;;;;;;1.92;1.63;;;16.70;53.20;;;12.76;72.04;95383.53;4970269;28;20041;-44
2022/08/13 01:57:09;;;;;;;2.50;1.48;;;16.70;53.30;;;12.79;71.58;95382.97;4970359;28;20037;-43
2022/08/13 01:59:41;;;;;;;3.05;1.83;;;16.60;53.30;;;12.81;71.29;95378.13;4971472;28;20026;-46
2022/08/13 02:02:10;;;;;;;1.70;1.50;;;16.60;53.40;;;12.81;71.03;95375.44;4970014;28;20501;-43
2022/08/13 02:04:37;;;;;;;1.60;1.40;;;16.60;53.30;;;12.81;71.28;95378.13;4974094;28;20042;-43
2022/08/13 02:07:08;;;;;;;3.63;1.73;;;16.70;53.40;;;12.79;71.24;95374.16;4972003;28;20412;-42
2022/08/13 02:09:43;;;;;;;1.50;1.40;;;16.70;53.40;;;12.85;70.91;95376.50;4971271;28;20080;-46
2022/08/13 02:12:20;;;;;;;3.30;1.50;;;16.70;53.50;;;12.87;70.93;95376.19;4970538;28;20280;-45
2022/08/13 02:14:46;;;;;;;1.70;1.55;;;16.70;53.50;;;12.89;71.36;95372.16;4971006;28;20046;-45
2022/08/13 02:17:25;;;;;;;2.05;1.52;;;16.70;53.40;;;12.93;71.08;95375.84;4986320;28;20085;-43
2022/08/13 02:19:56;;;;;;;2.47;1.38;;;16.70;53.50;;;13.07;70.90;95383.22;4979243;28;20026;-43
2022/08/13 02:22:25;;;;;;;2.42;1.40;;;16.80;53.60;;;13.30;69.24;95379.75;4989645;28;20439;-43
2022/08/13 02:25:06;;;;;;;2.85;1.38;;;16.80;53.60;;;13.51;68.67;95368.81;5000763;28;20033;-44
2022/08/13 02:27:34;;;;;;;1.85;1.30;;;17.00;53.70;;;13.60;67.89;95375.91;4975050;28;20402;-43
2022/08/13 02:30:00;;;;;;;4.13;1.38;;;17.00;53.40;;;13.69;67.78;95373.34;4957712;28;20037;-50
2022/08/13 02:32:29;;;;;;;1.35;1.15;;;17.10;53.30;;;13.80;66.86;95374.81;4989297;28;20041;-44
2022/08/13 02:34:57;;;;;;;1.83;1.35;;;17.20;53.20;;;13.86;66.47;95372.88;4974998;28;20054;-43
2022/08/13 02:37:30;;;;;;;2.65;1.50;;;17.30;53.00;;;13.92;66.03;95378.94;4975095;28;20056;-44
2022/08/13 02:39:56;;;;;;;2.33;1.35;;;17.40;52.90;;;14.03;65.79;95380.38;4973313;28;20022;-43
2022/08/13 02:42:22;;;;;;;2.28;1.50;;;17.40;52.80;;;14.07;65.56;95379.50;4988907;28;20029;-44
2022/08/13 02:44:51;;;;;;;2.00;1.50;;;17.50;52.60;;;14.09;65.27;95380.00;4973295;28;20492;-45
2022/08/13 02:47:21;;;;;;;6.15;1.52;;;17.60;52.60;;;14.09;65.33;95366.59;4973057;28;20067;-43
2022/08/13 02:49:51;;;;;;;1.88;1.40;;;17.70;52.40;;;14.10;65.32;95364.72;4989477;28;20025;-45
2022/08/13 02:52:19;;;;;;;4.32;1.50;;;17.70;52.30;;;14.14;65.16;95371.09;4982737;28;20038;-44
2022/08/13 02:54:49;;;;;;;2.63;1.35;;;17.80;52.20;;;14.11;65.29;95367.13;4989546;28;20026;-44
2022/08/13 02:57:18;;;;;;;3.70;1.50;;;17.80;52.10;;;14.08;65.38;95369.59;4974282;28;20034;-43
2022/08/13 02:59:45;;;;;;;1.58;1.40;;;17.80;52.00;;;14.11;65.50;95363.66;4972628;28;20056;-45
2022/08/13 03:02:11;;;;;;;3.63;1.48;;;17.80;52.00;;;14.11;65.40;95361.75;4974030;28;20480;-44
2022/08/13 03:04:45;;;;;;;2.28;1.30;;;17.80;51.90;;;14.11;65.49;95366.34;4989373;28;20473;-43
2022/08/13 03:07:11;;;;;;;1.42;1.33;;;17.90;52.00;;;14.09;65.73;95361.25;4972899;28;20046;-43
2022/08/13 03:09:41;;;;;;;1.67;1.38;;;17.90;51.90;;;14.08;65.61;95375.75;4989601;28;20057;-44
2022/08/13 03:12:09;;;;;;;2.45;1.50;;;17.90;52.00;;;14.06;65.70;95374.44;4972324;28;20061;-43
2022/08/13 03:14:42;;;;;;;4.82;1.60;;;17.80;51.90;;;14.06;65.75;95366.41;4989345;28;20030;-44
2022/08/13 03:17:08;;;;;;;4.45;1.60;;;17.90;52.00;;;14.06;66.03;95369.06;4973024;28;20026;-43
2022/08/13 03:19:36;;;;;;;4.45;1.50;;;17.90;51.90;;;14.12;65.95;95375.94;4993829;28;20507;-44
2022/08/13 03:22:03;;;;;;;1.70;1.60;;;17.90;52.00;;;14.07;66.06;95374.16;5008033;28;20049;-42
2022/08/13 03:24:28;;;;;;;1.75;1.48;;;17.90;52.00;;;14.04;66.37;95377.41;4991447;28;20052;-44
2022/08/13 03:26:56;;;;;;;2.25;1.73;;;17.80;51.90;;;14.02;66.31;95374.22;4988589;28;20026;-44
2022/08/13 03:29:26;;;;;;;2.92;1.70;;;17.80;52.00;;;14.00;66.61;95376.38;4972416;28;20018;-43
2022/08/13 03:31:52;;;;;;;3.13;1.70;;;17.80;52.00;;;13.94;66.93;95379.44;4956116;28;20069;-42
2022/08/13 03:34:20;;;;;;;2.72;1.52;;;17.80;52.00;;;13.91;67.24;95371.97;4988531;28;20046;-43
2022/08/13 03:36:46;;;;;;;6.18;1.65;;;17.80;52.00;;;13.87;67.13;95380.59;4987749;28;20115;-46
2022/08/13 03:39:18;;;;;;;3.78;1.45;;;17.70;52.00;;;13.80;67.27;95388.19;4988604;28;20026;-47
2022/08/13 03:41:44;;;;;;;4.97;1.63;;;17.70;52.10;;;13.70;68.90;95380.31;4973290;28;20500;-43
2022/08/13 03:44:10;;;;;;;3.38;1.75;;;17.60;52.20;;;13.57;68.68;95389.03;4972319;28;20033;-44
2022/08/13 03:46:36;;;;;;;1.60;1.50;;;17.50;52.40;;;13.41;69.02;95383.91;4973770;28;20026;-43
2022/08/13 03:49:02;;;;;;;3.33;1.80;;;17.40;52.40;;;13.25;68.82;95389.72;4940350;28;20536;-50
2022/08/13 03:51:36;;;;;;;3.25;1.80;;;17.30;52.50;;;13.09;68.78;95389.06;4973432;28;20100;-48
2022/08/13 03:54:03;;;;;;;3.22;2.28;;;17.20;52.60;;;12.91;69.54;95386.06;4971475;28;20062;-44
2022/08/13 03:56:32;;;;;;;2.13;1.92;;;17.10;52.90;;;12.73;72.48;95390.25;4972173;28;20038;-44
2022/08/13 03:58:58;;;;;;;2.50;2.00;;;17.00;53.20;;;12.58;73.02;95386.91;4973418;28;20088;-43
2022/08/13 04:01:24;;;;;;;5.60;1.80;;;16.80;53.20;;;12.45;73.95;95388.38;4972788;28;20037;-43
2022/08/13 04:03:53;;;;;;;2.20;1.80;;;16.70;53.50;;;12.37;73.82;95391.63;4972611;28;20028;-43
2022/08/13 04:06:22;;;;;;;2.55;1.77;;;16.60;53.60;;;12.26;74.29;95391.72;4971370;28;20113;-43
2022/08/13 04:08:50;;;;;;;3.17;1.80;;;16.50;53.90;;;12.13;74.83;95384.34;4973235;28;20022;-43
2022/08/13 04:11:25;;;;;;;5.15;2.30;;;16.40;54.20;;;12.06;75.33;95383.06;4973111;28;20499;-45
2022/08/13 04:13:51;;;;;;;2.55;1.80;;;16.30;54.50;;;11.99;75.95;95386.06;4971407;28;20113;-43
2022/08/13 04:16:23;;;;;;;2.97;1.90;;;16.20;54.50;;;11.99;76.39;95384.19;4971681;28;20113;-42
2022/08/13 04:18:54;;;;;;;3.05;1.90;;;16.20;54.90;;;12.00;76.62;95388.47;4972550;28;20037;-45
2022/08/13 04:21:31;;;;;;;2.92;2.45;;;16.10;55.00;;;12.01;76.63;95386.59;4972824;28;20066;-44
2022/08/13 04:23:57;;;;;;;4.00;1.95;;;16.10;55.20;;;11.95;76.92;95387.69;4972198;28;20161;-45
2022/08/13 04:26:30;;;;;;;3.33;2.00;;;16.10;55.30;;;11.89;76.77;95389.59;4972821;28;20030;-43
2022/08/13 04:29:04;;;;;;;2.47;2.28;;;16.00;55.50;;;11.80;76.05;95388.53;4972831;28;20025;-45
2022/08/13 04:31:31;;;;;;;4.80;1.95;;;16.00;55.60;;;11.70;75.81;95384.06;4987665;28;20374;-45
2022/08/13 04:33:57;;;;;;;4.45;2.25;;;15.90;55.50;;;11.61;76.15;95379.59;4987022;28;20024;-47
2022/08/13 04:36:40;;;;;;;2.67;1.95;;;15.90;55.60;;;11.47;76.84;95382.88;4987701;28;20022;-42
2022/08/13 04:39:12;;;;;;;3.33;2.35;;;15.80;55.90;;;11.41;77.71;95380.50;4971724;28;20108;-44
2022/08/13 04:41:40;;;;;;;2.83;2.30;;;15.70;56.00;;;11.31;78.37;95384.81;4972225;28;20187;-48
2022/08/13 04:44:07;;;;;;;2.53;2.20;;;15.70;55.90;;;11.25;78.18;95379.75;4971130;28;20026;-47
2022/08/13 04:46:33;;;;;;;5.03;2.65;;;15.60;56.00;;;11.20;78.02;95387.78;4965687;28;20030;-45
2022/08/13 04:48:59;;;;;;;3.65;2.40;;;15.60;56.20;;;11.14;78.71;95387.00;4973487;28;20061;-45
2022/08/13 04:51:31;;;;;;;4.28;2.30;;;15.50;56.30;;;11.09;80.14;95390.50;4972238;28;20338;-44
2022/08/13 04:53:57;;;;;;;4.40;2.33;;;15.50;56.50;;;11.06;81.31;95388.38;4982442;23;20046;-49
2022/08/13 04:56:26;;;;;;;3.65;2.03;;;15.50;56.60;;;11.13;82.24;95389.97;4984284;28;20029;-47
2022/08/13 04:58:55;;;;;;;4.47;2.30;;;15.40;56.70;;;11.17;81.27;95391.78;4973616;28;20029;-46
2022/08/13 05:01:22;;;;;;;3.38;2.13;;;15.50;57.00;;;11.22;81.75;95390.97;4973197;28;20042;-46
2022/08/13 05:03:48;;;;;;;2.67;2.28;;;15.40;57.00;;;11.51;82.42;95397.25;4953853;28;20050;-47
2022/08/13 05:06:21;;;;;;;3.00;2.30;;;15.50;57.60;;;11.89;82.20;95399.47;4971603;28;20018;-48
2022/08/13 05:08:52;;;;;;;4.53;2.20;;;15.60;57.20;;;12.31;80.42;95403.44;4971118;28;20377;-50
2022/08/13 05:11:19;;;;;;;3.13;1.90;;;15.90;57.30;;;12.70;78.00;95404.16;4971193;28;20408;-46
2022/08/13 05:13:46;;;;;;;3.20;2.35;;;16.00;57.10;;;13.01;76.12;95406.53;4970467;28;20022;-48
2022/08/13 05:16:18;;;;;;;2.42;2.22;;;16.30;57.10;;;13.28;75.42;95407.88;4967377;28;20038;-46
2022/08/13 05:18:54;;;;;;;3.83;2.30;;;16.60;57.00;;;13.57;74.13;95402.41;4954261;28;20476;-47
2022/08/13 05:21:24;;;;;;;3.75;2.08;;;16.80;56.80;;;13.87;72.91;95401.22;4971663;28;20540;-45
2022/08/13 05:24:14;;;;;;;2.53;1.90;;;17.10;56.60;;;14.19;72.51;95407.72;4952686;28;20026;-46
2022/08/13 05:26:39;;;;;;;3.33;2.20;;;17.40;56.40;;;14.51;70.94;95410.47;4974246;28;20121;-48
2022/08/13 05:29:05;;;;;;;4.25;2.10;;;17.70;56.00;;;14.80;69.63;95417.50;4986591;28;20544;-47
2022/08/13 05:31:54;;;;;;;1.90;1.70;;;18.10;55.80;;;15.19;68.46;95405.50;4956463;28;20060;-46
2022/08/13 05:34:20;;;;;;;3.60;1.92;;;18.40;55.40;;;15.57;66.22;95410.66;4845464;28;24627;-46
2022/08/13 05:36:46;;;;;;;2.75;1.95;;;18.70;54.90;;;15.90;65.75;95405.97;4945301;28;20111;-46
2022/08/13 05:39:15;;;;;;;4.57;1.80;;;19.10;54.50;;;16.24;64.20;95408.16;4905373;28;21376;-46
2022/08/13 05:41:42;;;;;;;3.92;1.90;;;19.50;54.10;;;16.58;63.02;95402.22;4966145;28;20100;-48
2022/08/13 05:44:10;;;;;;;2.63;1.90;;;19.80;53.50;;;16.85;60.87;95400.50;4956014;28;20030;-47
2022/08/13 05:46:37;;;;;;;3.90;1.67;;;20.20;53.00;;;17.01;60.29;95403.59;4956734;28;20030;-50
2022/08/13 05:49:05;;;;;;;2.50;1.83;;;20.50;52.40;;;17.10;59.95;95396.34;4959107;28;20023;-47
2022/08/13 05:51:31;;;;;;;4.32;2.05;;;20.80;51.80;;;17.18;59.75;95402.91;4965954;28;20038;-50
2022/08/13 05:54:00;;;;;;;5.03;1.90;;;21.10;51.30;;;17.35;58.93;95394.88;4967500;28;20497;-49
2022/08/13 05:56:34;;;;;;;3.95;2.00;;;21.30;50.70;;;17.59;58.79;95394.47;4922938;28;20031;-48
2022/08/13 05:59:00;;;;;;;2.33;1.90;;;21.60;50.20;;;17.88;57.75;95404.69;4969626;28;20022;-51
2022/08/13 06:04:18;;;;;;;1.60;1.50;;;22.10;49.40;;;18.29;56.37;95397.25;4932683;28;22568;-46
2022/08/13 06:06:50;;;;;;;3.10;1.85;;;22.40;48.80;;;18.54;55.43;95393.75;4971136;28;20515;-48
2022/08/13 06:09:18;;;;;;;3.17;1.87;;;22.60;48.30;;;18.77;54.26;95390.88;4985300;28;20432;-48
2022/08/13 06:11:44;;;;;;;2.40;1.67;;;22.90;47.90;;;18.93;53.74;95381.97;4968455;28;20030;-47
2022/08/13 06:14:20;;;;;;;3.10;1.90;;;23.10;47.30;;;19.11;53.59;95379.19;4968966;28;20030;-50
2022/08/13 06:16:51;;;;;;;1.70;1.60;;;23.40;46.80;;;19.21;52.80;95386.13;4926215;28;20026;-52
2022/08/13 06:19:23;;;;;;;1.70;1.60;;;23.60;46.30;;;19.37;53.04;95376.41;4970510;28;20515;-46
2022/08/13 06:21:57;;;;;;;4.60;2.03;;;23.80;45.80;;;19.12;52.42;95378.09;4952943;28;20030;-47
2022/08/13 06:24:23;;;;;;;4.72;2.30;;;24.00;45.30;;;19.17;52.83;95372.50;4969820;28;20116;-50
2022/08/13 06:26:52;;;;;;;2.20;1.95;;;24.10;44.90;;;19.16;52.95;95382.50;4985840;28;20045;-50
2022/08/13 06:29:20;;;;;;;2.97;2.13;;;24.20;44.40;;;19.40;52.23;95383.84;4953738;28;20022;-48
2022/08/13 06:31:51;;;;;;;2.28;1.98;;;24.40;44.10;;;19.71;51.68;95388.94;4969553;28;20034;-49
2022/08/13 06:34:20;;;;;;;1.92;1.73;;;24.50;43.80;;;19.79;51.23;95395.41;4970714;28;20026;-53
2022/08/13 06:36:49;;;;;;;2.22;2.03;;;24.70;43.50;;;19.66;51.02;95391.03;4969666;28;20481;-50
2022/08/13 06:39:19;;;;;;;4.07;2.20;;;24.80;42.90;;;19.71;51.08;95386.25;4969846;28;20022;-50
2022/08/13 06:41:49;;;;;;;2.20;2.00;;;25.00;42.50;;;19.88;50.92;95388.03;4969340;28;20037;-47
2022/08/13 06:44:24;;;;;;;2.33;2.13;;;25.10;42.20;;;19.66;51.14;95385.63;4970780;28;20042;-47
2022/08/13 06:46:53;;;;;;;2.97;2.38;;;25.30;42.00;;;19.72;51.32;95398.63;4969852;28;20027;-47
2022/08/13 06:49:19;;;;;;;5.68;2.40;;;25.30;41.60;;;19.79;50.70;95398.13;4970928;28;20068;-46
2022/08/13 06:51:55;;;;;;;4.57;2.10;;;25.50;41.30;;;19.70;50.51;95400.06;4970507;28;20119;-51
2022/08/13 06:54:22;;;;;;;4.78;2.72;;;25.50;40.90;;;19.91;50.64;95398.19;4953471;28;20183;-46
2022/08/13 06:56:48;;;;;;;2.83;2.15;;;25.60;40.80;;;20.17;50.26;95391.81;4969611;28;20033;-47
2022/08/13 06:59:21;;;;;;;2.10;1.90;;;25.70;41.20;;;20.50;49.12;95391.84;4953587;28;20477;-47
2022/08/13 07:01:48;;;;;;;5.53;2.67;;;25.90;40.40;;;20.52;48.88;95390.41;4969315;28;20026;-47
2022/08/13 07:04:21;;;;;;;2.50;2.30;;;26.10;40.20;;;20.70;47.77;95393.75;4969659;28;20113;-47
2022/08/13 07:06:48;;;;;;;6.45;2.30;;;26.20;39.70;;;20.50;48.48;95387.22;4969683;28;20034;-47
2022/08/13 07:09:17;;;;;;;3.10;2.20;;;26.40;39.40;;;20.59;48.55;95381.78;4953029;28;20014;-49
2022/08/13 07:11:45;;;;;;;3.30;2.17;;;26.50;39.00;;;20.89;47.93;95387.03;4952785;28;20732;-46
2022/08/13 07:14:15;;;;;;;2.30;2.10;;;26.60;38.90;;;21.05;47.56;95384.47;4973134;28;20192;-48
2022/08/13 07:16:50;;;;;;;2.63;2.42;;;26.80;38.60;;;21.11;47.18;95389.34;4974025;28;20041;-51
2022/08/13 07:19:16;;;;;;;4.43;2.30;;;27.00;38.30;;;21.21;47.23;95388.09;4974227;28;20505;-48
2022/08/13 07:21:45;;;;;;;5.65;2.10;;;27.10;38.10;;;21.44;46.79;95397.41;4956224;28;20044;-49
2022/08/13 07:24:12;;;;;;;3.97;2.33;;;27.20;37.80;;;21.50;46.73;95389.84;4973859;28;20481;-50
2022/08/13 07:26:38;;;;;;;2.40;2.20;;;27.40;37.60;;;21.75;46.09;95392.53;4972722;28;20038;-47
2022/08/13 07:29:07;;;;;;;3.00;2.20;;;27.60;37.40;;;21.98;46.24;95401.00;4974077;28;20033;-46
2022/08/13 07:31:53;;;;;;;5.32;2.30;;;27.80;37.20;;;21.95;45.78;95402.47;4973399;28;20033;-46
2022/08/13 07:34:33;;;;;;;4.60;2.10;;;27.90;36.80;;;22.14;45.55;95405.34;4973844;28;20026;-47
2022/08/13 07:37:03;;;;;;;3.65;2.90;;;28.10;36.60;;;22.28;45.09;95406.94;4972571;28;20109;-52
2022/08/13 07:39:32;;;;;;;5.10;2.78;;;28.30;36.40;;;22.21;44.94;95404.81;4973839;28;20018;-47
2022/08/13 07:41:59;;;;;;;4.93;2.63;;;28.40;35.90;;;22.05;45.11;95395.78;4973266;28;20104;-51
2022/08/13 07:44:28;;;;;;;2.90;2.50;;;28.50;35.60;;;22.17;45.27;95398.50;4972411;28;20381;-48
2022/08/13 07:46:56;;;;;;;2.80;2.60;;;28.60;35.40;;;22.13;45.18;95392.94;4971975;28;20180;-50
2022/08/13 07:49:29;;;;;;;4.40;2.33;;;28.70;35.30;;;22.33;44.80;95398.56;4956603;28;20030;-47
2022/08/13 07:51:58;;;;;;;4.28;2.47;;;28.80;35.00;;;22.54;44.55;95401.88;4955539;28;20038;-52
2022/08/13 07:54:27;;;;;;;2.85;2.17;;;28.90;34.80;;;22.83;44.09;95403.44;4973291;28;20180;-48
2022/08/13 07:56:56;;;;;;;3.05;2.85;;;29.00;34.70;;;22.78;43.77;95411.84;4971800;28;20025;-49
2022/08/13 07:59:29;;;;;;;2.70;2.50;;;29.20;34.50;;;22.94;44.41;95406.50;4971699;28;20117;-48
2022/08/13 08:01:58;;;;;;;3.00;2.75;;;29.30;34.40;;;23.03;42.96;95400.88;4971521;28;20477;-49
2022/08/13 08:04:25;;;;;;;3.03;2.75;;;29.50;34.20;;;23.13;43.00;95399.56;4973203;28;20084;-52
2022/08/13 08:06:52;;;;;;;3.05;2.70;;;29.60;33.90;;;23.19;43.13;95395.44;4955871;28;20070;-47
2022/08/13 08:09:29;;;;;;;2.78;2.40;;;29.70;33.70;;;23.09;43.05;95404.91;4972342;28;20449;-49
2022/08/13 08:14:52;;;;;;;6.25;2.53;;;30.00;33.20;;;23.57;42.36;95411.16;4971948;28;20094;-50
2022/08/13 08:17:26;;;;;;;4.15;2.55;;;30.00;33.00;;;23.87;42.02;95406.06;4973218;28;20030;-50
2022/08/13 08:19:56;;;;;;;3.22;2.70;;;30.10;32.80;;;23.82;41.28;95402.81;4971973;28;20109;-49
2022/08/13 08:22:25;;;;;;;3.40;2.60;;;30.40;32.70;;;23.33;42.02;95409.41;4972183;28;20032;-50
2022/08/13 08:24:51;;;;;;;3.53;3.10;;;30.50;32.20;;;23.28;41.89;95415.91;4955551;28;20022;-48
2022/08/13 08:27:19;;;;;;;4.85;2.75;;;30.50;32.10;;;23.80;42.01;95411.34;4973250;28;20022;-49
2022/08/13 08:29:49;;;;;;;2.78;2.58;;;30.60;32.00;;;24.00;41.96;95412.16;4971544;28;20103;-50
2022/08/13 08:32:20;;;;;;;4.00;2.75;;;30.80;32.10;;;23.74;42.16;95420.91;4972416;28;20034;-48
2022/08/13 08:34:50;;;;;;;4.18;3.08;;;30.80;31.70;;;24.03;41.04;95414.19;4971516;28;20033;-48
2022/08/13 08:43:02;;;;;;;3.50;3.10;;;31.20;31.20;;;23.51;42.03;95418.00;4972470;28;20400;-49
2022/08/13 08:45:28;;;;;;;3.72;3.30;;;31.20;30.90;;;23.99;40.64;95418.75;4971168;28;20022;-47
2022/08/13 08:47:54;;;;;;;5.70;2.80;;;31.20;30.70;;;24.47;41.08;95411.25;4955455;28;20030;-49
2022/08/13 08:50:26;;;;;;;3.05;2.83;;;31.30;30.80;;;24.90;38.94;95407.44;4972544;28;20018;-48
2022/08/13 08:55:43;;;;;;;3.97;3.25;;;31.70;30.50;;;25.30;38.41;95408.19;4972833;28;20454;-47
2022/08/13 08:58:12;;;;;;;4.00;2.90;;;31.90;30.10;;;25.57;38.09;95407.09;4971196;28;20034;-52
2022/08/13 09:00:40;;;;;;;4.57;3.00;;;32.10;30.00;;;25.56;38.22;95400.03;4955245;28;20029;-48
2022/08/13 09:03:10;;;;;;;2.70;2.50;;;32.20;29.80;;;25.76;37.50;95400.75;4954669;28;20033;-50
2022/08/13 09:05:45;;;;;;;5.45;2.70;;;32.40;29.60;;;25.57;38.04;95400.81;4971375;28;20441;-49
2022/08/13 09:08:18;;;;;;;7.20;3.20;;;32.50;29.50;;;25.82;38.40;95412.97;4955448;28;20033;-49
2022/08/13 09:10:49;;;;;;;4.07;2.88;;;32.60;29.40;;;25.90;37.61;95413.06;4986787;28;20034;-50
2022/08/13 09:13:19;;;;;;;3.15;2.80;;;32.80;29.30;;;25.89;38.39;95415.00;4969950;28;20481;-50
2022/08/13 09:15:48;;;;;;;4.30;3.00;;;32.90;29.10;;;26.02;37.55;95416.38;4970967;28;20022;-47
2022/08/13 09:18:21;;;;;;;3.50;3.00;;;33.00;29.00;;;26.28;37.52;95414.78;4974494;28;20117;-50
2022/08/13 09:20:48;;;;;;;12.40;3.35;;;33.10;29.00;;;26.57;36.86;95424.13;4975512;28;20018;-52
2022/08/13 09:23:18;;;;;;;6.68;2.80;;;33.20;28.90;;;26.87;36.11;95421.38;4970411;28;20161;-47
2022/08/13 09:25:55;;;;;;;6.43;3.25;;;33.40;28.70;;;26.83;36.28;95417.84;4971936;28;20511;-47
2022/08/13 09:28:24;;;;;;;3.30;3.00;;;33.60;28.50;;;26.82;35.89;95415.47;4971961;28;20113;-47
2022/08/13 09:30:55;;;;;;;2.95;2.75;;;33.80;28.40;;;26.90;36.19;95414.38;4970875;28;20480;-47
2022/08/13 09:33:31;;;;;;;3.67;3.28;;;33.90;28.30;;;27.42;35.27;95415.31;4971439;28;20160;-47
2022/08/13 09:35:58;;;;;;;3.70;3.00;;;34.00;28.10;;;27.80;34.80;95422.31;4970207;28;20032;-48
2022/08/13 09:38:27;;;;;;;3.67;3.10;;;34.20;28.10;;;27.84;33.94;95412.19;4970726;28;20022;-53
2022/08/13 09:41:38;;;;;;;3.85;3.08;;;34.40;27.90;;;27.60;34.37;95419.00;4970786;28;20026;-53
2022/08/13 09:44:05;;;;;;;4.30;3.28;;;34.50;27.60;;;27.86;33.75;95418.06;4971872;28;20061;-51
2022/08/13 09:46:35;;;;;;;2.85;2.65;;;34.70;27.40;;;28.05;34.30;95419.75;4970592;28;20049;-50
2022/08/13 09:49:03;;;;;;;3.75;2.40;;;34.80;27.40;;;28.23;33.85;95411.63;4971974;28;20113;-47
2022/08/13 09:51:34;;;;;;;4.18;3.00;;;34.90;27.20;;;27.17;34.58;95418.63;4970568;28;20041;-51
2022/08/13 09:54:08;;;;;;;3.10;2.90;;;35.00;26.80;;;27.22;34.05;95415.53;4971574;28;20046;-47
2022/08/13 09:56:58;;;;;;;4.65;2.72;;;35.00;26.60;;;27.47;34.44;95409.50;4969981;28;20366;-48
2022/08/13 09:59:33;;;;;;;6.53;3.13;;;35.00;26.70;;;27.75;33.08;95414.44;4954659;28;20109;-49
2022/08/13 10:02:12;;;;;;;4.50;2.60;;;34.90;26.50;;;27.25;34.36;95405.78;4941420;28;20540;-50
2022/08/13 10:04:42;;;;;;;4.25;2.45;;;34.90;26.50;;;27.39;34.32;95400.47;4972056;28;20473;-47
2022/08/13 10:07:12;;;;;;;2.80;2.60;;;34.90;26.50;;;27.60;32.88;95399.06;4970480;28;20036;-48
2022/08/13 10:09:44;;;;;;;2.97;2.72;;;34.90;26.40;;;26.75;35.30;95406.03;4971611;28;20481;-48
2022/08/13 10:12:10;;;;;;;5.88;4.45;;;34.80;26.30;;;27.27;34.61;95400.75;4962625;28;20033;-50
2022/08/13 10:14:36;;;;;;;7.43;4.70;;;34.80;26.40;;;27.52;34.24;95397.44;4948440;28;20621;-47
2022/08/13 10:17:04;;;;;;;5.22;2.88;;;34.80;26.40;;;27.65;32.82;95394.03;4968555;28;20531;-47
2022/08/13 10:19:31;;;;;;;3.80;2.80;;;34.90;26.20;;;27.90;33.58;95398.94;4966390;28;20051;-49
2022/08/13 10:21:57;;;;;;;3.40;3.10;;;35.00;26.20;;;27.72;33.64;95381.56;4967014;28;20026;-49
2022/08/13 10:24:23;;;;;;;3.00;2.70;;;35.10;26.10;;;27.31;34.45;95395.31;4968152;28;20026;-50
2022/08/13 10:26:51;;;;;;;3.05;2.80;;;35.10;26.00;;;27.75;34.26;95383.56;4968703;28;20028;-47
2022/08/13 10:29:17;;;;;;;4.05;2.75;;;35.10;26.10;;;27.83;33.58;95386.00;4969343;28;20116;-47
2022/08/13 10:31:43;;;;;;;4.05;2.25;;;35.20;26.10;;;27.81;33.63;95382.84;4966530;28;20389;-49
2022/08/13 10:34:11;;;;;;;2.90;2.63;;;35.20;26.00;;;27.75;32.77;95389.81;4969136;28;20034;-48
2022/08/13 10:36:45;;;;;;;5.18;2.53;;;35.20;25.80;;;28.02;33.15;95379.47;4971639;28;20027;-49
2022/08/13 10:39:14;;;;;;;2.80;2.60;;;35.20;25.70;;;28.16;33.19;95386.97;4976481;28;20429;-49
2022/08/13 10:41:44;;;;;;;5.72;2.50;;;35.30;25.70;;;28.06;32.95;95383.00;4968593;28;20112;-51
2022/08/13 10:44:13;;;;;;;4.72;3.20;;;35.40;25.60;;;28.19;32.38;95367.03;4956001;28;20036;-48
2022/08/13 10:46:41;;;;;;;3.60;2.40;;;35.50;25.60;;;28.55;30.63;95381.72;4970359;28;20038;-49
2022/08/13 10:49:10;;;;;;;2.70;2.50;;;35.60;25.30;;;28.27;31.44;95376.88;4972890;28;20033;-51
2022/08/13 10:51:36;;;;;;;4.78;2.35;;;35.70;25.20;;;28.07;31.77;95386.50;4968880;28;20508;-47